sensor_id;sensor_type;location;lat;lon;timestamp;P1;durP1;ratioP1;P2;durP2;ratioP2
76894;SDS011;65855;42.030;13.078;2023-06-14T00:01:31;6.50;;;2.45;;
76894;SDS011;65855;42.030;13.078;2023-06-14T00:03:59;6.00;;;2.10;;
76894;SDS011;65855;42.030;13.078;2023-06-14T00:06:26;8.30;;;2.38;;
76894;SDS011;65855;42.030;13.078;2023-06-14T00:08:53;6.80;;;2.47;;
76894;SDS011;65855;42.030;13.078;2023-06-14T00:11:19;5.50;;;1.88;;
76894;SDS011;65855;42.030;13.078;2023-06-14T00:13:44;7.00;;;3.10;;
76894;SDS011;65855;42.030;13.078;2023-06-14T00:16:10;7.88;;;2.58;;
76894;SDS011;65855;42.030;13.078;2023-06-14T00:18:36;7.65;;;2.13;;
76894;SDS011;65855;42.030;13.078;2023-06-14T00:21:02;8.07;;;2.28;;
76894;SDS011;65855;42.030;13.078;2023-06-14T00:23:29;6.03;;;2.05;;
76894;SDS011;65855;42.030;13.078;2023-06-14T00:25:54;7.03;;;2.53;;
76894;SDS011;65855;42.030;13.078;2023-06-14T00:28:20;6.65;;;2.38;;
76894;SDS011;65855;42.030;13.078;2023-06-14T00:30:45;8.05;;;2.10;;
76894;SDS011;65855;42.030;13.078;2023-06-14T00:33:11;7.35;;;2.25;;
76894;SDS011;65855;42.030;13.078;2023-06-14T00:35:37;7.25;;;2.60;;
76894;SDS011;65855;42.030;13.078;2023-06-14T00:38:03;7.45;;;1.98;;
76894;SDS011;65855;42.030;13.078;2023-06-14T00:40:28;6.07;;;2.00;;
76894;SDS011;65855;42.030;13.078;2023-06-14T00:42:54;7.30;;;3.05;;
76894;SDS011;65855;42.030;13.078;2023-06-14T00:45:19;7.07;;;2.25;;
76894;SDS011;65855;42.030;13.078;2023-06-14T00:47:45;8.70;;;2.78;;
76894;SDS011;65855;42.030;13.078;2023-06-14T00:50:11;6.53;;;2.58;;
76894;SDS011;65855;42.030;13.078;2023-06-14T00:52:38;6.45;;;2.15;;
76894;SDS011;65855;42.030;13.078;2023-06-14T00:55:04;6.18;;;2.15;;
76894;SDS011;65855;42.030;13.078;2023-06-14T00:57:31;5.97;;;2.30;;
76894;SDS011;65855;42.030;13.078;2023-06-14T00:59:57;7.97;;;2.58;;
76894;SDS011;65855;42.030;13.078;2023-06-14T01:02:22;6.20;;;2.25;;
76894;SDS011;65855;42.030;13.078;2023-06-14T01:04:49;6.53;;;3.83;;
76894;SDS011;65855;42.030;13.078;2023-06-14T01:07:25;5.78;;;1.70;;
76894;SDS011;65855;42.030;13.078;2023-06-14T01:12:58;7.63;;;2.65;;
76894;SDS011;65855;42.030;13.078;2023-06-14T01:15:30;8.18;;;2.10;;
76894;SDS011;65855;42.030;13.078;2023-06-14T01:17:56;6.45;;;2.05;;
76894;SDS011;65855;42.030;13.078;2023-06-14T01:22:53;6.75;;;2.08;;
76894;SDS011;65855;42.030;13.078;2023-06-14T01:25:19;5.15;;;1.98;;
76894;SDS011;65855;42.030;13.078;2023-06-14T01:28:09;6.07;;;1.92;;
76894;SDS011;65855;42.030;13.078;2023-06-14T01:30:36;7.07;;;2.17;;
76894;SDS011;65855;42.030;13.078;2023-06-14T01:33:03;8.07;;;2.38;;
76894;SDS011;65855;42.030;13.078;2023-06-14T01:35:29;6.57;;;2.40;;
76894;SDS011;65855;42.030;13.078;2023-06-14T01:37:55;8.00;;;2.30;;
76894;SDS011;65855;42.030;13.078;2023-06-14T01:40:22;5.57;;;2.15;;
76894;SDS011;65855;42.030;13.078;2023-06-14T01:42:49;6.22;;;1.88;;
76894;SDS011;65855;42.030;13.078;2023-06-14T01:45:16;8.77;;;2.28;;
76894;SDS011;65855;42.030;13.078;2023-06-14T01:47:43;6.00;;;2.28;;
76894;SDS011;65855;42.030;13.078;2023-06-14T01:50:10;8.32;;;2.38;;
76894;SDS011;65855;42.030;13.078;2023-06-14T01:52:36;6.82;;;2.35;;
76894;SDS011;65855;42.030;13.078;2023-06-14T01:55:03;7.03;;;2.60;;
76894;SDS011;65855;42.030;13.078;2023-06-14T01:57:29;5.25;;;1.80;;
76894;SDS011;65855;42.030;13.078;2023-06-14T01:59:55;6.88;;;2.80;;
76894;SDS011;65855;42.030;13.078;2023-06-14T02:02:20;5.93;;;2.33;;
76894;SDS011;65855;42.030;13.078;2023-06-14T02:04:46;7.13;;;2.10;;
76894;SDS011;65855;42.030;13.078;2023-06-14T02:07:12;5.05;;;1.70;;
76894;SDS011;65855;42.030;13.078;2023-06-14T02:09:38;5.85;;;1.65;;
76894;SDS011;65855;42.030;13.078;2023-06-14T02:12:03;7.38;;;2.05;;
76894;SDS011;65855;42.030;13.078;2023-06-14T02:14:29;6.20;;;1.95;;
76894;SDS011;65855;42.030;13.078;2023-06-14T02:16:55;5.03;;;1.95;;
76894;SDS011;65855;42.030;13.078;2023-06-14T02:19:20;5.30;;;1.90;;
76894;SDS011;65855;42.030;13.078;2023-06-14T02:21:46;5.32;;;2.10;;
76894;SDS011;65855;42.030;13.078;2023-06-14T02:24:12;7.10;;;2.63;;
76894;SDS011;65855;42.030;13.078;2023-06-14T02:26:38;7.53;;;2.13;;
76894;SDS011;65855;42.030;13.078;2023-06-14T02:29:07;6.90;;;2.58;;
76894;SDS011;65855;42.030;13.078;2023-06-14T02:31:36;6.93;;;2.33;;
76894;SDS011;65855;42.030;13.078;2023-06-14T02:34:01;7.55;;;2.03;;
76894;SDS011;65855;42.030;13.078;2023-06-14T02:36:27;6.63;;;2.10;;
76894;SDS011;65855;42.030;13.078;2023-06-14T02:38:55;5.30;;;2.25;;
76894;SDS011;65855;42.030;13.078;2023-06-14T02:41:22;6.20;;;1.85;;
76894;SDS011;65855;42.030;13.078;2023-06-14T02:43:48;4.78;;;1.23;;
76894;SDS011;65855;42.030;13.078;2023-06-14T02:46:14;5.55;;;1.50;;
76894;SDS011;65855;42.030;13.078;2023-06-14T02:48:40;6.25;;;2.50;;
76894;SDS011;65855;42.030;13.078;2023-06-14T02:51:05;7.20;;;1.83;;
76894;SDS011;65855;42.030;13.078;2023-06-14T02:53:31;5.55;;;2.05;;
76894;SDS011;65855;42.030;13.078;2023-06-14T02:55:56;5.80;;;1.45;;
76894;SDS011;65855;42.030;13.078;2023-06-14T02:58:21;6.30;;;1.92;;
76894;SDS011;65855;42.030;13.078;2023-06-14T03:00:49;4.93;;;1.80;;
76894;SDS011;65855;42.030;13.078;2023-06-14T03:03:17;6.05;;;1.60;;
76894;SDS011;65855;42.030;13.078;2023-06-14T03:05:43;6.40;;;2.17;;
76894;SDS011;65855;42.030;13.078;2023-06-14T03:08:14;8.57;;;2.15;;
76894;SDS011;65855;42.030;13.078;2023-06-14T03:10:48;7.22;;;1.85;;
76894;SDS011;65855;42.030;13.078;2023-06-14T03:13:17;5.30;;;1.55;;
76894;SDS011;65855;42.030;13.078;2023-06-14T03:15:46;6.18;;;2.00;;
76894;SDS011;65855;42.030;13.078;2023-06-14T03:18:14;7.57;;;1.67;;
76894;SDS011;65855;42.030;13.078;2023-06-14T03:20:40;6.47;;;2.10;;
76894;SDS011;65855;42.030;13.078;2023-06-14T03:23:07;5.80;;;2.58;;
76894;SDS011;65855;42.030;13.078;2023-06-14T03:25:33;4.55;;;1.35;;
76894;SDS011;65855;42.030;13.078;2023-06-14T03:28:01;4.68;;;1.48;;
76894;SDS011;65855;42.030;13.078;2023-06-14T03:30:27;12.18;;;1.90;;
76894;SDS011;65855;42.030;13.078;2023-06-14T03:32:53;4.40;;;1.63;;
76894;SDS011;65855;42.030;13.078;2023-06-14T03:35:20;8.10;;;1.85;;
76894;SDS011;65855;42.030;13.078;2023-06-14T03:37:46;7.75;;;1.75;;
76894;SDS011;65855;42.030;13.078;2023-06-14T03:40:15;5.30;;;1.52;;
76894;SDS011;65855;42.030;13.078;2023-06-14T03:42:43;5.72;;;1.85;;
76894;SDS011;65855;42.030;13.078;2023-06-14T03:45:09;5.65;;;1.13;;
76894;SDS011;65855;42.030;13.078;2023-06-14T03:47:35;5.75;;;2.00;;
76894;SDS011;65855;42.030;13.078;2023-06-14T03:50:01;6.60;;;2.20;;
76894;SDS011;65855;42.030;13.078;2023-06-14T03:52:27;7.38;;;1.63;;
76894;SDS011;65855;42.030;13.078;2023-06-14T03:54:53;7.93;;;2.30;;
76894;SDS011;65855;42.030;13.078;2023-06-14T03:57:18;5.03;;;1.80;;
76894;SDS011;65855;42.030;13.078;2023-06-14T03:59:45;6.20;;;2.20;;
76894;SDS011;65855;42.030;13.078;2023-06-14T04:02:10;6.07;;;1.77;;
76894;SDS011;65855;42.030;13.078;2023-06-14T04:04:36;5.55;;;1.65;;
76894;SDS011;65855;42.030;13.078;2023-06-14T04:07:02;6.95;;;2.10;;
76894;SDS011;65855;42.030;13.078;2023-06-14T04:09:28;7.07;;;2.40;;
76894;SDS011;65855;42.030;13.078;2023-06-14T04:11:56;6.32;;;1.95;;
76894;SDS011;65855;42.030;13.078;2023-06-14T04:14:21;6.30;;;2.13;;
76894;SDS011;65855;42.030;13.078;2023-06-14T04:16:47;5.50;;;2.25;;
76894;SDS011;65855;42.030;13.078;2023-06-14T04:19:14;8.90;;;1.98;;
76894;SDS011;65855;42.030;13.078;2023-06-14T04:21:40;4.68;;;1.70;;
76894;SDS011;65855;42.030;13.078;2023-06-14T04:24:06;6.65;;;1.77;;
76894;SDS011;65855;42.030;13.078;2023-06-14T04:26:32;5.63;;;1.83;;
76894;SDS011;65855;42.030;13.078;2023-06-14T04:28:58;7.15;;;2.00;;
76894;SDS011;65855;42.030;13.078;2023-06-14T04:31:28;6.35;;;2.28;;
76894;SDS011;65855;42.030;13.078;2023-06-14T04:33:55;6.50;;;2.30;;
76894;SDS011;65855;42.030;13.078;2023-06-14T04:36:21;10.50;;;2.88;;
76894;SDS011;65855;42.030;13.078;2023-06-14T04:38:47;7.68;;;3.08;;
76894;SDS011;65855;42.030;13.078;2023-06-14T04:41:14;8.38;;;2.75;;
76894;SDS011;65855;42.030;13.078;2023-06-14T04:43:41;8.52;;;2.70;;
76894;SDS011;65855;42.030;13.078;2023-06-14T04:46:07;5.93;;;1.88;;
76894;SDS011;65855;42.030;13.078;2023-06-14T04:48:39;6.65;;;3.33;;
76894;SDS011;65855;42.030;13.078;2023-06-14T04:51:06;8.23;;;2.80;;
76894;SDS011;65855;42.030;13.078;2023-06-14T04:53:32;6.45;;;2.45;;
76894;SDS011;65855;42.030;13.078;2023-06-14T04:55:57;12.45;;;8.73;;
76894;SDS011;65855;42.030;13.078;2023-06-14T04:58:23;9.93;;;5.53;;
76894;SDS011;65855;42.030;13.078;2023-06-14T05:00:48;8.32;;;4.10;;
76894;SDS011;65855;42.030;13.078;2023-06-14T05:03:14;8.02;;;3.00;;
76894;SDS011;65855;42.030;13.078;2023-06-14T05:05:40;5.85;;;2.55;;
76894;SDS011;65855;42.030;13.078;2023-06-14T05:08:06;7.55;;;2.97;;
76894;SDS011;65855;42.030;13.078;2023-06-14T05:10:31;6.13;;;2.72;;
76894;SDS011;65855;42.030;13.078;2023-06-14T05:12:59;6.22;;;2.65;;
76894;SDS011;65855;42.030;13.078;2023-06-14T05:15:25;4.32;;;1.42;;
76894;SDS011;65855;42.030;13.078;2023-06-14T05:17:51;4.35;;;1.20;;
76894;SDS011;65855;42.030;13.078;2023-06-14T05:20:20;5.28;;;1.63;;
76894;SDS011;65855;42.030;13.078;2023-06-14T05:22:48;4.13;;;1.20;;
76894;SDS011;65855;42.030;13.078;2023-06-14T05:25:16;5.80;;;1.88;;
76894;SDS011;65855;42.030;13.078;2023-06-14T05:27:42;6.05;;;1.65;;
76894;SDS011;65855;42.030;13.078;2023-06-14T05:30:08;10.90;;;1.73;;
76894;SDS011;65855;42.030;13.078;2023-06-14T05:32:34;6.10;;;1.90;;
76894;SDS011;65855;42.030;13.078;2023-06-14T05:34:59;5.10;;;2.00;;
76894;SDS011;65855;42.030;13.078;2023-06-14T05:37:25;4.20;;;1.38;;
76894;SDS011;65855;42.030;13.078;2023-06-14T05:39:50;4.32;;;1.20;;
76894;SDS011;65855;42.030;13.078;2023-06-14T05:42:16;5.25;;;1.52;;
76894;SDS011;65855;42.030;13.078;2023-06-14T05:44:41;4.60;;;1.33;;
76894;SDS011;65855;42.030;13.078;2023-06-14T05:47:06;3.83;;;0.90;;
76894;SDS011;65855;42.030;13.078;2023-06-14T05:49:32;6.22;;;1.45;;
76894;SDS011;65855;42.030;13.078;2023-06-14T05:51:57;4.20;;;1.00;;
76894;SDS011;65855;42.030;13.078;2023-06-14T05:54:23;5.30;;;1.20;;
76894;SDS011;65855;42.030;13.078;2023-06-14T05:56:48;3.95;;;1.33;;
76894;SDS011;65855;42.030;13.078;2023-06-14T05:59:13;4.55;;;0.90;;
76894;SDS011;65855;42.030;13.078;2023-06-14T06:01:39;5.47;;;1.27;;
76894;SDS011;65855;42.030;13.078;2023-06-14T06:04:07;4.88;;;1.17;;
76894;SDS011;65855;42.030;13.078;2023-06-14T06:06:32;7.53;;;1.92;;
76894;SDS011;65855;42.030;13.078;2023-06-14T06:08:57;3.97;;;1.02;;
76894;SDS011;65855;42.030;13.078;2023-06-14T06:11:23;4.47;;;1.25;;
76894;SDS011;65855;42.030;13.078;2023-06-14T06:13:49;4.65;;;1.38;;
76894;SDS011;65855;42.030;13.078;2023-06-14T06:16:15;4.70;;;1.58;;
76894;SDS011;65855;42.030;13.078;2023-06-14T06:18:41;5.32;;;1.52;;
76894;SDS011;65855;42.030;13.078;2023-06-14T06:21:06;4.68;;;1.23;;
76894;SDS011;65855;42.030;13.078;2023-06-14T06:23:31;6.03;;;1.70;;
76894;SDS011;65855;42.030;13.078;2023-06-14T06:25:57;5.15;;;1.70;;
76894;SDS011;65855;42.030;13.078;2023-06-14T06:28:22;4.55;;;1.40;;
76894;SDS011;65855;42.030;13.078;2023-06-14T06:30:48;8.15;;;1.35;;
76894;SDS011;65855;42.030;13.078;2023-06-14T06:33:13;4.80;;;1.40;;
76894;SDS011;65855;42.030;13.078;2023-06-14T06:35:39;5.53;;;1.70;;
76894;SDS011;65855;42.030;13.078;2023-06-14T06:38:05;5.70;;;1.20;;
76894;SDS011;65855;42.030;13.078;2023-06-14T06:40:30;5.63;;;1.40;;
76894;SDS011;65855;42.030;13.078;2023-06-14T06:42:56;5.65;;;1.65;;
76894;SDS011;65855;42.030;13.078;2023-06-14T06:45:21;4.90;;;1.40;;
76894;SDS011;65855;42.030;13.078;2023-06-14T06:47:48;5.68;;;1.33;;
76894;SDS011;65855;42.030;13.078;2023-06-14T06:50:14;5.00;;;1.02;;
76894;SDS011;65855;42.030;13.078;2023-06-14T06:52:39;5.10;;;1.42;;
76894;SDS011;65855;42.030;13.078;2023-06-14T06:55:05;4.80;;;1.52;;
76894;SDS011;65855;42.030;13.078;2023-06-14T06:57:31;4.45;;;1.10;;
76894;SDS011;65855;42.030;13.078;2023-06-14T06:59:56;4.32;;;1.55;;
76894;SDS011;65855;42.030;13.078;2023-06-14T07:02:22;4.18;;;1.30;;
76894;SDS011;65855;42.030;13.078;2023-06-14T07:04:47;4.70;;;1.40;;
76894;SDS011;65855;42.030;13.078;2023-06-14T07:07:13;5.82;;;1.13;;
76894;SDS011;65855;42.030;13.078;2023-06-14T07:09:38;4.00;;;1.20;;
76894;SDS011;65855;42.030;13.078;2023-06-14T07:12:04;6.82;;;1.63;;
76894;SDS011;65855;42.030;13.078;2023-06-14T07:14:29;5.93;;;1.23;;
76894;SDS011;65855;42.030;13.078;2023-06-14T07:16:55;5.40;;;1.40;;
76894;SDS011;65855;42.030;13.078;2023-06-14T07:19:21;4.70;;;1.30;;
76894;SDS011;65855;42.030;13.078;2023-06-14T07:21:46;7.18;;;1.40;;
76894;SDS011;65855;42.030;13.078;2023-06-14T07:24:12;4.38;;;1.20;;
76894;SDS011;65855;42.030;13.078;2023-06-14T07:26:39;4.90;;;1.50;;
76894;SDS011;65855;42.030;13.078;2023-06-14T07:29:04;5.18;;;1.45;;
76894;SDS011;65855;42.030;13.078;2023-06-14T07:31:30;4.60;;;1.23;;
76894;SDS011;65855;42.030;13.078;2023-06-14T07:33:55;5.57;;;1.58;;
76894;SDS011;65855;42.030;13.078;2023-06-14T07:36:21;5.00;;;1.42;;
76894;SDS011;65855;42.030;13.078;2023-06-14T07:38:47;5.38;;;1.45;;
76894;SDS011;65855;42.030;13.078;2023-06-14T07:41:12;5.30;;;1.50;;
76894;SDS011;65855;42.030;13.078;2023-06-14T07:43:38;5.28;;;1.52;;
76894;SDS011;65855;42.030;13.078;2023-06-14T07:46:03;5.32;;;1.77;;
76894;SDS011;65855;42.030;13.078;2023-06-14T07:48:29;4.20;;;1.70;;
76894;SDS011;65855;42.030;13.078;2023-06-14T07:50:55;5.78;;;1.55;;
76894;SDS011;65855;42.030;13.078;2023-06-14T07:53:20;4.68;;;1.58;;
76894;SDS011;65855;42.030;13.078;2023-06-14T07:55:46;6.10;;;1.73;;
76894;SDS011;65855;42.030;13.078;2023-06-14T07:58:12;4.38;;;1.40;;
76894;SDS011;65855;42.030;13.078;2023-06-14T08:00:38;6.47;;;1.63;;
76894;SDS011;65855;42.030;13.078;2023-06-14T08:03:03;5.22;;;1.88;;
76894;SDS011;65855;42.030;13.078;2023-06-14T08:05:29;4.95;;;1.52;;
76894;SDS011;65855;42.030;13.078;2023-06-14T08:07:54;4.65;;;1.25;;
76894;SDS011;65855;42.030;13.078;2023-06-14T08:10:20;5.97;;;1.42;;
76894;SDS011;65855;42.030;13.078;2023-06-14T08:12:46;5.13;;;1.17;;
76894;SDS011;65855;42.030;13.078;2023-06-14T08:15:13;5.35;;;1.55;;
76894;SDS011;65855;42.030;13.078;2023-06-14T08:17:39;4.45;;;1.80;;
76894;SDS011;65855;42.030;13.078;2023-06-14T08:20:04;5.28;;;1.88;;
76894;SDS011;65855;42.030;13.078;2023-06-14T08:22:31;4.88;;;1.52;;
76894;SDS011;65855;42.030;13.078;2023-06-14T08:24:59;4.75;;;1.45;;
76894;SDS011;65855;42.030;13.078;2023-06-14T08:27:26;4.88;;;1.40;;
76894;SDS011;65855;42.030;13.078;2023-06-14T08:29:51;4.65;;;1.40;;
76894;SDS011;65855;42.030;13.078;2023-06-14T08:32:17;7.13;;;1.45;;
76894;SDS011;65855;42.030;13.078;2023-06-14T08:34:42;5.10;;;1.48;;
76894;SDS011;65855;42.030;13.078;2023-06-14T08:37:07;6.05;;;1.23;;
76894;SDS011;65855;42.030;13.078;2023-06-14T08:39:33;6.38;;;1.63;;
76894;SDS011;65855;42.030;13.078;2023-06-14T08:41:58;5.68;;;1.77;;
76894;SDS011;65855;42.030;13.078;2023-06-14T08:44:27;6.15;;;1.67;;
76894;SDS011;65855;42.030;13.078;2023-06-14T08:46:53;5.07;;;1.55;;
76894;SDS011;65855;42.030;13.078;2023-06-14T08:49:24;6.00;;;1.70;;
76894;SDS011;65855;42.030;13.078;2023-06-14T08:51:52;5.95;;;1.85;;
76894;SDS011;65855;42.030;13.078;2023-06-14T08:54:27;6.00;;;1.45;;
76894;SDS011;65855;42.030;13.078;2023-06-14T08:56:55;5.85;;;1.48;;
76894;SDS011;65855;42.030;13.078;2023-06-14T08:59:27;6.65;;;1.65;;
76894;SDS011;65855;42.030;13.078;2023-06-14T09:01:53;5.35;;;1.40;;
76894;SDS011;65855;42.030;13.078;2023-06-14T09:04:22;4.53;;;1.33;;
76894;SDS011;65855;42.030;13.078;2023-06-14T09:06:53;5.20;;;1.25;;
76894;SDS011;65855;42.030;13.078;2023-06-14T09:09:20;5.68;;;1.80;;
76894;SDS011;65855;42.030;13.078;2023-06-14T09:11:45;4.60;;;1.20;;
76894;SDS011;65855;42.030;13.078;2023-06-14T09:14:11;5.07;;;1.40;;
76894;SDS011;65855;42.030;13.078;2023-06-14T09:16:36;4.32;;;1.10;;
76894;SDS011;65855;42.030;13.078;2023-06-14T09:19:02;5.57;;;1.45;;
76894;SDS011;65855;42.030;13.078;2023-06-14T09:21:27;5.55;;;1.27;;
76894;SDS011;65855;42.030;13.078;2023-06-14T09:23:53;5.55;;;1.30;;
76894;SDS011;65855;42.030;13.078;2023-06-14T09:26:19;5.32;;;1.40;;
76894;SDS011;65855;42.030;13.078;2023-06-14T09:28:45;5.15;;;1.50;;
76894;SDS011;65855;42.030;13.078;2023-06-14T09:31:18;4.70;;;1.48;;
76894;SDS011;65855;42.030;13.078;2023-06-14T09:33:46;5.65;;;1.50;;
76894;SDS011;65855;42.030;13.078;2023-06-14T09:36:24;5.35;;;1.10;;
76894;SDS011;65855;42.030;13.078;2023-06-14T09:41:20;4.93;;;1.40;;
76894;SDS011;65855;42.030;13.078;2023-06-14T09:46:25;5.40;;;1.40;;
76894;SDS011;65855;42.030;13.078;2023-06-14T09:48:51;4.38;;;1.40;;
76894;SDS011;65855;42.030;13.078;2023-06-14T09:51:17;5.25;;;1.50;;
76894;SDS011;65855;42.030;13.078;2023-06-14T09:53:45;6.43;;;1.55;;
76894;SDS011;65855;42.030;13.078;2023-06-14T09:56:14;5.68;;;1.45;;
76894;SDS011;65855;42.030;13.078;2023-06-14T09:58:44;5.53;;;1.73;;
76894;SDS011;65855;42.030;13.078;2023-06-14T10:01:10;4.50;;;1.25;;
76894;SDS011;65855;42.030;13.078;2023-06-14T10:03:38;4.68;;;1.95;;
76894;SDS011;65855;42.030;13.078;2023-06-14T10:06:04;4.57;;;1.38;;
76894;SDS011;65855;42.030;13.078;2023-06-14T10:08:32;5.97;;;1.55;;
76894;SDS011;65855;42.030;13.078;2023-06-14T10:11:02;5.60;;;1.50;;
76894;SDS011;65855;42.030;13.078;2023-06-14T10:13:28;4.60;;;1.48;;
76894;SDS011;65855;42.030;13.078;2023-06-14T10:24:10;3.90;;;0.98;;
76894;SDS011;65855;42.030;13.078;2023-06-14T10:27:01;5.53;;;1.45;;
76894;SDS011;65855;42.030;13.078;2023-06-14T10:29:27;5.13;;;1.40;;
76894;SDS011;65855;42.030;13.078;2023-06-14T10:31:59;5.13;;;1.52;;
76894;SDS011;65855;42.030;13.078;2023-06-14T10:34:27;4.80;;;1.17;;
76894;SDS011;65855;42.030;13.078;2023-06-14T10:37:07;4.30;;;1.20;;
76894;SDS011;65855;42.030;13.078;2023-06-14T10:39:40;5.57;;;2.00;;
76894;SDS011;65855;42.030;13.078;2023-06-14T10:42:11;4.78;;;1.20;;
76894;SDS011;65855;42.030;13.078;2023-06-14T10:47:23;5.50;;;1.38;;
76894;SDS011;65855;42.030;13.078;2023-06-14T10:50:09;6.07;;;1.77;;
76894;SDS011;65855;42.030;13.078;2023-06-14T10:52:39;7.68;;;1.80;;
76894;SDS011;65855;42.030;13.078;2023-06-14T10:55:15;4.32;;;1.45;;
76894;SDS011;65855;42.030;13.078;2023-06-14T11:00:10;4.40;;;1.35;;
76894;SDS011;65855;42.030;13.078;2023-06-14T11:02:45;3.55;;;1.10;;
76894;SDS011;65855;42.030;13.078;2023-06-14T11:05:26;5.85;;;1.75;;
76894;SDS011;65855;42.030;13.078;2023-06-14T11:10:51;7.43;;;1.60;;
76894;SDS011;65855;42.030;13.078;2023-06-14T11:13:18;6.75;;;2.42;;
76894;SDS011;65855;42.030;13.078;2023-06-14T11:15:44;3.95;;;1.60;;
76894;SDS011;65855;42.030;13.078;2023-06-14T11:18:13;6.05;;;1.90;;
76894;SDS011;65855;42.030;13.078;2023-06-14T11:20:39;3.72;;;1.30;;
76894;SDS011;65855;42.030;13.078;2023-06-14T11:23:05;5.57;;;1.63;;
76894;SDS011;65855;42.030;13.078;2023-06-14T11:25:30;5.93;;;1.55;;
76894;SDS011;65855;42.030;13.078;2023-06-14T11:27:56;5.18;;;1.42;;
76894;SDS011;65855;42.030;13.078;2023-06-14T11:30:22;6.40;;;2.03;;
76894;SDS011;65855;42.030;13.078;2023-06-14T11:32:49;4.95;;;2.08;;
76894;SDS011;65855;42.030;13.078;2023-06-14T11:35:15;6.18;;;2.13;;
76894;SDS011;65855;42.030;13.078;2023-06-14T11:37:42;4.00;;;1.48;;
76894;SDS011;65855;42.030;13.078;2023-06-14T11:40:09;4.45;;;1.75;;
76894;SDS011;65855;42.030;13.078;2023-06-14T11:42:37;5.30;;;1.88;;
76894;SDS011;65855;42.030;13.078;2023-06-14T11:45:03;5.68;;;1.88;;
76894;SDS011;65855;42.030;13.078;2023-06-14T11:47:32;5.97;;;2.05;;
76894;SDS011;65855;42.030;13.078;2023-06-14T11:50:01;7.03;;;1.92;;
76894;SDS011;65855;42.030;13.078;2023-06-14T11:52:26;5.75;;;1.98;;
76894;SDS011;65855;42.030;13.078;2023-06-14T11:54:52;6.97;;;2.58;;
76894;SDS011;65855;42.030;13.078;2023-06-14T11:57:18;6.32;;;2.10;;
76894;SDS011;65855;42.030;13.078;2023-06-14T11:59:44;7.95;;;2.40;;
76894;SDS011;65855;42.030;13.078;2023-06-14T12:02:14;7.03;;;2.05;;
76894;SDS011;65855;42.030;13.078;2023-06-14T12:04:43;6.75;;;2.25;;
76894;SDS011;65855;42.030;13.078;2023-06-14T12:07:09;7.90;;;2.33;;
76894;SDS011;65855;42.030;13.078;2023-06-14T12:09:40;6.45;;;2.50;;
76894;SDS011;65855;42.030;13.078;2023-06-14T12:14:52;6.75;;;2.60;;
76894;SDS011;65855;42.030;13.078;2023-06-14T12:17:20;12.10;;;3.22;;
76894;SDS011;65855;42.030;13.078;2023-06-14T12:19:45;6.13;;;2.55;;
76894;SDS011;65855;42.030;13.078;2023-06-14T12:22:12;8.52;;;2.72;;
76894;SDS011;65855;42.030;13.078;2023-06-14T12:24:39;8.43;;;3.38;;
76894;SDS011;65855;42.030;13.078;2023-06-14T12:27:07;7.95;;;2.80;;
76894;SDS011;65855;42.030;13.078;2023-06-14T12:29:33;7.00;;;2.35;;
76894;SDS011;65855;42.030;13.078;2023-06-14T12:31:58;7.72;;;3.05;;
76894;SDS011;65855;42.030;13.078;2023-06-14T12:34:24;7.20;;;3.42;;
76894;SDS011;65855;42.030;13.078;2023-06-14T12:36:52;7.10;;;2.97;;
76894;SDS011;65855;42.030;13.078;2023-06-14T12:39:19;8.10;;;2.83;;
76894;SDS011;65855;42.030;13.078;2023-06-14T12:41:45;7.32;;;2.97;;
76894;SDS011;65855;42.030;13.078;2023-06-14T12:44:11;7.15;;;2.97;;
76894;SDS011;65855;42.030;13.078;2023-06-14T12:46:37;8.05;;;2.63;;
76894;SDS011;65855;42.030;13.078;2023-06-14T12:49:04;7.45;;;2.67;;
76894;SDS011;65855;42.030;13.078;2023-06-14T12:51:45;6.40;;;2.45;;
76894;SDS011;65855;42.030;13.078;2023-06-14T12:54:10;7.43;;;2.42;;
76894;SDS011;65855;42.030;13.078;2023-06-14T12:56:35;6.93;;;2.63;;
76894;SDS011;65855;42.030;13.078;2023-06-14T12:59:01;9.60;;;3.00;;
76894;SDS011;65855;42.030;13.078;2023-06-14T13:01:26;8.10;;;2.70;;
76894;SDS011;65855;42.030;13.078;2023-06-14T13:03:52;6.38;;;2.38;;
76894;SDS011;65855;42.030;13.078;2023-06-14T13:06:22;6.28;;;1.98;;
76894;SDS011;65855;42.030;13.078;2023-06-14T13:08:47;8.10;;;2.70;;
76894;SDS011;65855;42.030;13.078;2023-06-14T13:11:13;5.50;;;2.40;;
76894;SDS011;65855;42.030;13.078;2023-06-14T13:13:38;10.10;;;2.65;;
76894;SDS011;65855;42.030;13.078;2023-06-14T13:16:04;6.82;;;2.38;;
76894;SDS011;65855;42.030;13.078;2023-06-14T13:18:30;7.97;;;2.60;;
76894;SDS011;65855;42.030;13.078;2023-06-14T13:20:55;7.38;;;2.83;;
76894;SDS011;65855;42.030;13.078;2023-06-14T13:23:20;6.88;;;2.17;;
76894;SDS011;65855;42.030;13.078;2023-06-14T13:25:46;7.60;;;2.45;;
76894;SDS011;65855;42.030;13.078;2023-06-14T13:28:11;9.80;;;3.13;;
76894;SDS011;65855;42.030;13.078;2023-06-14T13:30:37;7.95;;;2.63;;
76894;SDS011;65855;42.030;13.078;2023-06-14T13:33:02;7.30;;;2.38;;
76894;SDS011;65855;42.030;13.078;2023-06-14T13:35:28;9.63;;;2.58;;
76894;SDS011;65855;42.030;13.078;2023-06-14T13:37:53;7.50;;;2.75;;
76894;SDS011;65855;42.030;13.078;2023-06-14T13:40:19;6.78;;;2.42;;
76894;SDS011;65855;42.030;13.078;2023-06-14T13:42:45;7.65;;;2.55;;
76894;SDS011;65855;42.030;13.078;2023-06-14T13:45:11;7.43;;;3.10;;
76894;SDS011;65855;42.030;13.078;2023-06-14T13:47:38;6.28;;;2.35;;
76894;SDS011;65855;42.030;13.078;2023-06-14T13:50:04;9.77;;;2.53;;
76894;SDS011;65855;42.030;13.078;2023-06-14T13:52:30;6.00;;;2.28;;
76894;SDS011;65855;42.030;13.078;2023-06-14T13:54:56;7.03;;;2.17;;
76894;SDS011;65855;42.030;13.078;2023-06-14T13:57:22;6.97;;;2.38;;
76894;SDS011;65855;42.030;13.078;2023-06-14T13:59:47;6.63;;;2.10;;
76894;SDS011;65855;42.030;13.078;2023-06-14T14:02:13;8.07;;;2.92;;
76894;SDS011;65855;42.030;13.078;2023-06-14T14:04:39;6.20;;;2.03;;
76894;SDS011;65855;42.030;13.078;2023-06-14T14:07:05;5.43;;;1.70;;
76894;SDS011;65855;42.030;13.078;2023-06-14T14:09:32;6.28;;;2.47;;
76894;SDS011;65855;42.030;13.078;2023-06-14T14:11:59;7.63;;;2.75;;
76894;SDS011;65855;42.030;13.078;2023-06-14T14:14:27;5.32;;;1.73;;
76894;SDS011;65855;42.030;13.078;2023-06-14T14:16:53;5.97;;;2.20;;
76894;SDS011;65855;42.030;13.078;2023-06-14T14:19:20;6.25;;;2.30;;
76894;SDS011;65855;42.030;13.078;2023-06-14T14:21:47;6.97;;;2.40;;
76894;SDS011;65855;42.030;13.078;2023-06-14T14:24:12;6.80;;;2.30;;
76894;SDS011;65855;42.030;13.078;2023-06-14T14:26:38;7.05;;;2.80;;
76894;SDS011;65855;42.030;13.078;2023-06-14T14:29:04;5.80;;;1.90;;
76894;SDS011;65855;42.030;13.078;2023-06-14T14:31:30;6.63;;;1.80;;
76894;SDS011;65855;42.030;13.078;2023-06-14T14:33:55;6.82;;;2.28;;
76894;SDS011;65855;42.030;13.078;2023-06-14T14:36:21;6.80;;;2.38;;
76894;SDS011;65855;42.030;13.078;2023-06-14T14:38:46;6.40;;;1.48;;
76894;SDS011;65855;42.030;13.078;2023-06-14T14:41:12;6.13;;;2.20;;
76894;SDS011;65855;42.030;13.078;2023-06-14T14:43:38;6.35;;;2.42;;
76894;SDS011;65855;42.030;13.078;2023-06-14T14:46:04;5.93;;;2.00;;
76894;SDS011;65855;42.030;13.078;2023-06-14T14:48:30;6.53;;;2.25;;
76894;SDS011;65855;42.030;13.078;2023-06-14T14:50:55;7.35;;;2.13;;
76894;SDS011;65855;42.030;13.078;2023-06-14T14:53:20;5.88;;;1.77;;
76894;SDS011;65855;42.030;13.078;2023-06-14T14:55:46;5.30;;;1.73;;
76894;SDS011;65855;42.030;13.078;2023-06-14T14:58:12;5.40;;;1.65;;
76894;SDS011;65855;42.030;13.078;2023-06-14T15:00:41;7.30;;;1.83;;